Time;durP1;ratioP1;P1;durP2;ratioP2;P2;SDS_P1;SDS_P2;PMS_P1;PMS_P2;Temp;Humidity;BMP_temperature;BMP_pressure;BME280_temperature;BME280_humidity;BME280_pressure;Samples;Min_cycle;Max_cycle;Signal;HPM_P1;HPM_P2
2022/03/25 00:01:57;;;;;;;17.20;10.30;;;8.20;50.30;;;;;;4978167;28;20035;-77
2022/03/25 00:04:22;;;;;;;21.08;11.57;;;8.20;50.40;;;;;;4953562;28;20049;-77
2022/03/25 00:06:48;;;;;;;24.40;12.10;;;8.10;50.50;;;;;;4973623;28;20484;-77
2022/03/25 00:09:13;;;;;;;22.52;12.70;;;8.10;50.60;;;;;;4960473;28;20040;-77
2022/03/25 00:11:40;;;;;;;21.52;11.95;;;8.10;50.60;;;;;;4967074;28;20031;-77
2022/03/25 00:14:05;;;;;;;22.02;11.02;;;8.00;50.60;;;;;;4968008;28;20516;-77
2022/03/25 00:16:32;;;;;;;22.75;11.93;;;7.90;50.80;;;;;;4967663;28;20044;-77
2022/03/25 00:18:57;;;;;;;21.10;12.05;;;7.90;50.80;;;;;;4981092;28;20039;-77
2022/03/25 00:21:23;;;;;;;21.52;12.90;;;7.90;50.90;;;;;;4950107;28;20065;-77
2022/03/25 00:23:49;;;;;;;22.38;11.65;;;7.80;51.00;;;;;;4962188;28;20120;-77
2022/03/25 00:26:15;;;;;;;16.90;10.18;;;7.70;51.10;;;;;;4954856;28;20034;-77
2022/03/25 00:28:40;;;;;;;17.35;10.63;;;7.70;51.20;;;;;;4970449;28;20042;-77
2022/03/25 00:31:07;;;;;;;24.77;11.82;;;7.70;51.50;;;;;;4965735;28;20475;-77
2022/03/25 00:33:39;;;;;;;25.13;12.60;;;7.70;51.60;;;;;;4948290;28;20046;-77
2022/03/25 00:36:05;;;;;;;23.35;12.30;;;7.60;51.70;;;;;;4970220;28;20042;-77
2022/03/25 00:38:30;;;;;;;20.67;12.68;;;7.60;51.60;;;;;;4975236;28;20070;-77
2022/03/25 00:40:56;;;;;;;25.08;12.43;;;7.50;51.60;;;;;;4972397;28;20066;-77
2022/03/25 00:43:22;;;;;;;24.00;11.90;;;7.50;51.70;;;;;;4964319;28;20026;-77
2022/03/25 00:45:47;;;;;;;23.50;12.07;;;7.40;51.80;;;;;;4966974;28;20034;-77
2022/03/25 00:48:14;;;;;;;21.67;12.05;;;7.40;52.00;;;;;;4964705;28;20038;-76
2022/03/25 00:50:40;;;;;;;20.50;11.85;;;7.40;52.10;;;;;;4985346;28;20050;-77
2022/03/25 00:53:05;;;;;;;22.88;12.57;;;7.40;52.20;;;;;;4953466;28;20557;-77
2022/03/25 00:55:31;;;;;;;20.83;11.43;;;7.30;52.20;;;;;;4969070;28;20074;-77
2022/03/25 00:57:58;;;;;;;21.90;12.10;;;7.20;52.20;;;;;;4969179;28;20055;-77
2022/03/25 01:00:24;;;;;;;25.50;13.13;;;7.20;52.40;;;;;;4963461;28;20037;-77
2022/03/25 01:02:49;;;;;;;19.33;11.02;;;7.10;52.40;;;;;;4949790;28;20038;-77
2022/03/25 01:05:17;;;;;;;20.65;11.27;;;7.10;52.70;;;;;;4993439;28;20057;-77
2022/03/25 01:07:43;;;;;;;24.33;12.05;;;7.10;52.70;;;;;;4972509;28;20037;-77
2022/03/25 01:10:09;;;;;;;21.00;11.63;;;7.10;52.80;;;;;;4954642;28;20034;-77
2022/03/25 01:12:35;;;;;;;22.05;11.18;;;7.00;52.80;;;;;;4973896;28;20045;-77
2022/03/25 01:15:00;;;;;;;20.88;12.55;;;7.00;52.90;;;;;;4975345;28;20030;-77
2022/03/25 01:17:27;;;;;;;21.83;12.10;;;6.90;52.90;;;;;;4964305;28;20038;-77
2022/03/25 01:19:52;;;;;;;22.17;11.55;;;6.90;53.00;;;;;;4972544;28;20038;-77
2022/03/25 01:22:18;;;;;;;20.27;11.35;;;6.90;53.10;;;;;;4970523;28;20046;-77
2022/03/25 01:24:44;;;;;;;21.90;12.30;;;6.80;53.20;;;;;;4965230;28;20038;-77
2022/03/25 01:27:09;;;;;;;18.15;10.70;;;6.80;53.30;;;;;;4969901;28;20065;-77
2022/03/25 01:29:35;;;;;;;20.25;11.63;;;6.80;53.40;;;;;;4968527;28;20038;-77
2022/03/25 01:32:01;;;;;;;20.40;11.55;;;6.80;53.50;;;;;;4967090;28;20034;-77
2022/03/25 01:34:27;;;;;;;17.38;10.85;;;6.70;53.40;;;;;;4959158;28;20077;-76
2022/03/25 01:36:53;;;;;;;21.30;10.95;;;6.70;54.30;;;;;;4969666;28;20061;-76
2022/03/25 01:39:18;;;;;;;23.50;11.27;;;6.70;53.80;;;;;;4961842;28;20038;-77
2022/03/25 01:41:47;;;;;;;23.92;12.07;;;6.60;53.90;;;;;;4987628;28;20497;-77
2022/03/25 01:44:13;;;;;;;20.75;11.27;;;6.60;54.00;;;;;;4967132;28;20038;-77
2022/03/25 01:46:38;;;;;;;18.67;10.88;;;6.60;54.00;;;;;;4971656;28;20046;-76
2022/03/25 01:49:05;;;;;;;23.08;11.90;;;6.60;54.10;;;;;;4952128;28;20390;-76
2022/03/25 01:51:32;;;;;;;21.63;12.50;;;6.50;54.10;;;;;;4969381;28;20491;-76
2022/03/25 01:54:16;;;;;;;19.88;11.23;;;6.50;54.30;;;;;;4975514;28;20085;-77
2022/03/25 01:56:41;;;;;;;21.65;11.55;;;6.50;54.60;;;;;;4971345;28;20027;-76
2022/03/25 01:59:08;;;;;;;20.08;10.43;;;6.50;54.30;;;;;;4970658;28;20023;-76
2022/03/25 02:01:33;;;;;;;20.38;11.43;;;6.50;54.40;;;;;;4965404;28;20124;-76
2022/03/25 02:03:59;;;;;;;20.13;11.93;;;6.50;54.60;;;;;;4971555;28;20130;-76
2022/03/25 02:06:25;;;;;;;22.85;12.48;;;6.40;54.60;;;;;;4972478;28;20035;-76
2022/03/25 02:08:51;;;;;;;24.58;12.45;;;6.40;54.60;;;;;;4948424;28;20031;-76
2022/03/25 02:11:18;;;;;;;24.83;12.05;;;6.40;54.70;;;;;;4971969;28;20120;-76
2022/03/25 02:13:44;;;;;;;20.60;11.57;;;6.30;54.60;;;;;;4978952;28;20046;-76
2022/03/25 02:16:09;;;;;;;20.13;11.52;;;6.30;54.70;;;;;;4975130;28;20039;-76
2022/03/25 02:18:35;;;;;;;19.85;11.85;;;6.20;54.80;;;;;;4985107;28;20041;-76
2022/03/25 02:21:00;;;;;;;18.92;11.50;;;6.10;54.80;;;;;;4979173;28;20096;-77
2022/03/25 02:23:26;;;;;;;22.08;11.95;;;6.10;54.80;;;;;;4961256;28;20061;-76
2022/03/25 02:25:52;;;;;;;20.58;11.18;;;6.00;54.90;;;;;;4961067;28;20038;-77
2022/03/25 02:28:18;;;;;;;24.08;11.52;;;6.00;55.10;;;;;;4949406;28;20042;-77
2022/03/25 02:30:43;;;;;;;21.27;11.70;;;6.00;55.30;;;;;;4967347;28;20393;-77
2022/03/25 02:33:10;;;;;;;22.83;11.98;;;5.90;55.40;;;;;;4970293;28;20066;-77
2022/03/25 02:35:43;;;;;;;20.48;11.45;;;6.00;55.50;;;;;;4965188;28;20041;-77
2022/03/25 02:38:11;;;;;;;21.65;12.55;;;5.90;55.50;;;;;;4965403;28;20042;-77
2022/03/25 02:40:37;;;;;;;23.08;12.95;;;5.80;55.40;;;;;;4959487;28;20719;-77
2022/03/25 02:43:02;;;;;;;23.33;12.43;;;5.80;55.40;;;;;;4950073;28;20074;-77
2022/03/25 02:45:28;;;;;;;20.88;12.43;;;5.70;55.50;;;;;;4972352;28;20035;-77
2022/03/25 02:47:53;;;;;;;22.48;12.07;;;5.70;55.70;;;;;;4951173;28;20128;-77
2022/03/25 02:50:19;;;;;;;22.98;12.63;;;5.60;55.70;;;;;;4966591;28;20509;-77
2022/03/25 02:52:44;;;;;;;23.55;12.55;;;5.60;55.80;;;;;;4977314;28;20097;-77
2022/03/25 02:55:10;;;;;;;23.63;11.48;;;5.60;55.90;;;;;;4968489;28;20147;-77
2022/03/25 02:57:36;;;;;;;22.40;12.77;;;5.50;56.00;;;;;;4972261;28;20038;-78
2022/03/25 03:00:04;;;;;;;24.83;13.07;;;5.50;56.10;;;;;;4984422;28;20034;-77
2022/03/25 03:02:29;;;;;;;25.90;13.88;;;5.50;56.20;;;;;;4976098;28;20700;-77
2022/03/25 03:04:55;;;;;;;22.90;12.30;;;5.50;56.90;;;;;;4968888;28;20069;-77
2022/03/25 03:07:21;;;;;;;27.85;14.32;;;5.40;56.30;;;;;;4984730;28;20118;-77
2022/03/25 03:09:46;;;;;;;21.35;12.05;;;5.40;56.40;;;;;;4977082;28;20046;-77
2022/03/25 03:12:13;;;;;;;24.42;12.02;;;5.30;56.40;;;;;;4973066;28;20035;-77
2022/03/25 03:14:39;;;;;;;20.15;11.77;;;5.30;56.60;;;;;;4974821;28;20038;-77
2022/03/25 03:17:04;;;;;;;22.13;12.07;;;5.20;56.60;;;;;;4965266;28;20031;-77
2022/03/25 03:19:31;;;;;;;24.25;13.07;;;5.20;56.60;;;;;;4982983;28;20063;-77
2022/03/25 03:21:57;;;;;;;23.98;12.77;;;5.20;56.80;;;;;;4982749;28;20065;-77
2022/03/25 03:24:23;;;;;;;24.52;12.02;;;5.20;56.80;;;;;;4971878;28;20031;-77
2022/03/25 03:26:48;;;;;;;24.13;12.90;;;5.20;56.90;;;;;;4965514;28;20066;-77
2022/03/25 03:29:14;;;;;;;21.70;11.95;;;5.20;57.00;;;;;;4967634;28;20511;-77
2022/03/25 03:31:39;;;;;;;23.83;12.52;;;5.20;57.00;;;;;;4967080;28;20022;-77
2022/03/25 03:34:05;;;;;;;24.25;12.82;;;5.20;57.10;;;;;;4947045;28;20057;-77
2022/03/25 03:36:30;;;;;;;23.73;11.82;;;5.10;57.00;;;;;;4948454;28;20085;-77
2022/03/25 03:38:56;;;;;;;24.67;12.43;;;5.10;57.00;;;;;;4940066;28;20035;-77
2022/03/25 03:41:21;;;;;;;23.05;12.40;;;5.10;57.10;;;;;;4981227;28;20412;-77
2022/03/25 03:43:47;;;;;;;19.88;11.90;;;5.00;57.20;;;;;;4964481;28;20476;-77
2022/03/25 03:46:12;;;;;;;24.85;12.60;;;5.00;57.30;;;;;;4962134;28;20031;-77
2022/03/25 03:48:39;;;;;;;22.05;12.23;;;5.00;57.40;;;;;;4972090;28;20031;-77
2022/03/25 03:51:05;;;;;;;25.55;11.82;;;5.00;57.40;;;;;;4966813;28;20038;-77
2022/03/25 03:53:30;;;;;;;22.33;11.93;;;5.00;57.60;;;;;;4967027;28;20026;-77
2022/03/25 03:55:56;;;;;;;19.58;10.88;;;5.00;57.60;;;;;;4952373;28;20058;-77
2022/03/25 03:58:23;;;;;;;21.13;11.45;;;4.90;57.70;;;;;;4963836;28;20053;-77
2022/03/25 04:00:49;;;;;;;24.33;13.20;;;4.90;57.80;;;;;;4955070;28;20081;-77
2022/03/25 04:03:14;;;;;;;27.00;13.07;;;4.90;57.80;;;;;;4950140;28;20067;-77
2022/03/25 04:05:40;;;;;;;21.67;12.65;;;4.90;57.80;;;;;;4967143;28;20515;-77
2022/03/25 04:08:07;;;;;;;21.83;12.07;;;4.90;57.80;;;;;;4930176;28;20580;-77
2022/03/25 04:10:33;;;;;;;20.17;11.18;;;4.90;57.90;;;;;;4970556;28;20038;-77
2022/03/25 04:12:59;;;;;;;21.25;12.15;;;4.80;57.90;;;;;;4945912;28;20049;-77
2022/03/25 04:15:24;;;;;;;22.50;12.93;;;4.80;58.00;;;;;;4959639;28;20121;-77
2022/03/25 04:17:50;;;;;;;21.10;12.05;;;4.80;58.00;;;;;;4960032;28;20038;-77
2022/03/25 04:20:15;;;;;;;21.95;12.15;;;4.80;58.10;;;;;;4968514;28;20070;-77
2022/03/25 04:22:42;;;;;;;21.83;11.48;;;4.70;58.10;;;;;;4938683;28;20027;-77
2022/03/25 04:25:08;;;;;;;23.95;13.02;;;4.70;58.10;;;;;;4960217;28;20045;-77
2022/03/25 04:27:34;;;;;;;20.52;11.82;;;4.60;58.10;;;;;;4965459;28;20023;-77
2022/03/25 04:29:59;;;;;;;20.08;12.18;;;4.60;58.20;;;;;;4965921;28;20047;-77
2022/03/25 04:32:28;;;;;;;17.88;11.27;;;4.60;58.40;;;;;;4962709;28;20639;-77
2022/03/25 04:34:54;;;;;;;20.60;12.57;;;4.50;58.40;;;;;;4960859;28;20047;-77
2022/03/25 04:37:19;;;;;;;19.13;11.48;;;4.50;58.50;;;;;;4966594;28;20082;-77
2022/03/25 04:39:45;;;;;;;24.15;12.25;;;4.50;58.60;;;;;;4962368;28;20204;-77
2022/03/25 04:42:11;;;;;;;19.50;11.48;;;4.50;58.70;;;;;;4981470;28;20034;-76
2022/03/25 04:44:36;;;;;;;20.85;11.38;;;4.50;58.80;;;;;;4995092;28;20034;-77
2022/03/25 04:47:03;;;;;;;22.60;12.02;;;4.40;58.80;;;;;;4969876;28;20042;-77
2022/03/25 04:49:29;;;;;;;24.02;12.68;;;4.40;58.80;;;;;;4947487;28;20045;-77
2022/03/25 04:51:54;;;;;;;23.33;12.77;;;4.40;59.00;;;;;;4955572;28;20049;-77
2022/03/25 04:54:20;;;;;;;24.08;13.48;;;4.40;59.00;;;;;;4973417;28;20061;-77
2022/03/25 04:56:45;;;;;;;23.38;12.93;;;4.40;59.10;;;;;;4980512;28;20222;-77
2022/03/25 04:59:11;;;;;;;25.17;13.70;;;4.30;59.00;;;;;;4969830;28;20430;-77
2022/03/25 05:01:37;;;;;;;25.65;13.48;;;4.30;59.10;;;;;;4964946;28;20037;-77
2022/03/25 05:04:02;;;;;;;25.83;13.30;;;4.20;59.10;;;;;;4965737;28;20524;-77
2022/03/25 05:06:28;;;;;;;26.75;14.02;;;4.20;59.30;;;;;;4965666;28;20039;-77
2022/03/25 05:08:53;;;;;;;25.17;13.85;;;4.20;59.30;;;;;;4958308;28;20043;-77
2022/03/25 05:11:20;;;;;;;24.02;13.10;;;4.20;59.30;;;;;;4980230;28;20070;-77
2022/03/25 05:13:45;;;;;;;24.38;13.25;;;4.20;59.40;;;;;;4968819;28;20071;-77
2022/03/25 05:16:11;;;;;;;28.02;14.45;;;4.10;59.30;;;;;;4964926;28;20070;-77
2022/03/25 05:18:38;;;;;;;23.33;12.90;;;4.10;59.30;;;;;;4969609;28;20057;-77
2022/03/25 05:21:05;;;;;;;20.52;12.23;;;4.10;59.40;;;;;;4979644;28;20030;-76
2022/03/25 05:23:30;;;;;;;23.98;13.48;;;4.10;59.60;;;;;;4966777;28;20034;-77
2022/03/25 05:25:56;;;;;;;26.00;13.25;;;4.00;59.70;;;;;;4969516;28;20122;-77
2022/03/25 05:28:21;;;;;;;26.75;13.52;;;4.00;59.70;;;;;;4964423;28;20065;-77
2022/03/25 05:30:47;;;;;;;25.15;14.02;;;4.00;59.70;;;;;;4966101;28;20473;-77
2022/03/25 05:33:12;;;;;;;27.35;14.20;;;4.00;59.80;;;;;;4974141;28;20572;-77
2022/03/25 05:35:38;;;;;;;24.77;13.48;;;4.00;59.80;;;;;;4956950;28;20038;-77
2022/03/25 05:38:03;;;;;;;19.92;11.52;;;3.90;59.80;;;;;;4965501;28;20039;-77
2022/03/25 05:40:29;;;;;;;23.20;12.52;;;4.00;60.00;;;;;;4952280;28;20043;-77
2022/03/25 05:42:55;;;;;;;24.88;13.32;;;3.90;59.90;;;;;;4950695;28;20039;-77
2022/03/25 05:45:21;;;;;;;25.20;13.18;;;3.90;60.00;;;;;;4969648;28;20049;-77
2022/03/25 05:47:47;;;;;;;28.95;14.48;;;3.90;60.10;;;;;;4968222;28;20050;-77
2022/03/25 05:50:13;;;;;;;23.88;13.48;;;3.90;60.10;;;;;;4980449;28;20050;-77
2022/03/25 05:52:39;;;;;;;27.45;14.70;;;3.90;60.10;;;;;;4980738;28;20280;-77
2022/03/25 05:55:05;;;;;;;22.98;14.00;;;3.80;60.10;;;;;;4950239;28;20041;-77
2022/03/25 05:57:31;;;;;;;27.48;14.75;;;3.80;60.20;;;;;;4970598;28;20039;-77
2022/03/25 05:59:58;;;;;;;26.67;14.05;;;3.80;61.10;;;;;;4975047;28;20034;-77
2022/03/25 06:02:24;;;;;;;27.52;14.35;;;3.80;60.40;;;;;;4960985;28;20088;-77
2022/03/25 06:04:51;;;;;;;27.23;15.07;;;3.80;60.50;;;;;;4963968;28;20532;-77
2022/03/25 06:07:17;;;;;;;31.17;15.70;;;3.80;60.60;;;;;;4960268;28;20039;-77
2022/03/25 06:09:42;;;;;;;25.35;13.95;;;3.90;60.70;;;;;;4964979;28;20039;-77
2022/03/25 06:12:08;;;;;;;26.90;14.07;;;3.90;60.70;;;;;;4966502;28;20039;-77
2022/03/25 06:14:34;;;;;;;25.58;13.50;;;3.90;60.60;;;;;;4972496;28;20026;-77
2022/03/25 06:17:00;;;;;;;28.85;16.60;;;3.90;60.70;;;;;;4976117;28;20522;-77
2022/03/25 06:19:25;;;;;;;35.17;18.23;;;3.90;60.80;;;;;;4951560;28;20443;-77
2022/03/25 06:21:51;;;;;;;37.88;18.55;;;3.90;60.70;;;;;;4977569;28;20031;-77
2022/03/25 06:24:17;;;;;;;41.85;22.17;;;4.00;60.80;;;;;;4964757;28;20073;-77
2022/03/25 06:26:43;;;;;;;34.45;19.05;;;4.10;60.90;;;;;;4969140;28;20035;-77
2022/03/25 06:29:09;;;;;;;32.53;18.65;;;4.10;60.90;;;;;;4978222;28;20057;-77
2022/03/25 06:31:34;;;;;;;33.05;19.00;;;4.10;60.90;;;;;;4969175;28;20056;-78
2022/03/25 06:34:00;;;;;;;31.25;17.08;;;4.20;60.90;;;;;;4976363;28;20130;-78
2022/03/25 06:36:25;;;;;;;32.00;16.58;;;4.20;60.90;;;;;;4972274;28;20489;-78
2022/03/25 06:38:51;;;;;;;28.00;16.35;;;4.30;61.00;;;;;;4974065;28;20038;-78
2022/03/25 06:41:16;;;;;;;27.88;15.98;;;4.30;61.00;;;;;;4968410;28;20039;-78
2022/03/25 06:43:42;;;;;;;31.42;17.02;;;4.40;61.10;;;;;;4967814;28;20038;-77
2022/03/25 06:46:08;;;;;;;30.13;17.17;;;4.40;61.10;;;;;;4957807;28;20054;-78
2022/03/25 06:48:33;;;;;;;31.42;16.77;;;4.50;61.10;;;;;;4966916;28;20030;-77
2022/03/25 06:51:00;;;;;;;27.65;14.88;;;4.60;61.20;;;;;;4974451;28;20054;-77
2022/03/25 06:53:26;;;;;;;30.25;15.90;;;4.60;61.20;;;;;;4963308;28;20046;-77
2022/03/25 06:55:53;;;;;;;28.35;15.70;;;4.70;61.30;;;;;;4961517;28;20029;-77
2022/03/25 06:58:18;;;;;;;25.20;15.20;;;4.80;61.40;;;;;;4962237;28;20039;-77
2022/03/25 07:00:47;;;;;;;30.35;14.98;;;4.90;61.40;;;;;;4951909;28;20408;-81
2022/03/25 07:03:14;;;;;;;30.60;15.57;;;5.00;61.50;;;;;;4960220;28;20122;-80
2022/03/25 07:05:40;;;;;;;31.30;16.42;;;5.10;61.40;;;;;;4979343;28;20041;-78
2022/03/25 07:08:06;;;;;;;27.48;14.93;;;5.20;61.40;;;;;;4970367;28;20039;-78
2022/03/25 07:10:32;;;;;;;27.45;15.73;;;5.30;61.50;;;;;;4961898;28;20038;-77
2022/03/25 07:12:57;;;;;;;24.45;14.48;;;5.40;61.40;;;;;;4970034;28;20500;-78
2022/03/25 07:15:23;;;;;;;28.58;15.68;;;5.50;61.40;;;;;;4955813;28;20046;-78
2022/03/25 07:17:50;;;;;;;28.40;15.05;;;5.60;61.40;;;;;;4943943;28;20556;-78
2022/03/25 07:20:16;;;;;;;25.27;15.98;;;5.80;61.30;;;;;;4998319;28;20200;-78
2022/03/25 07:22:43;;;;;;;26.13;14.75;;;5.90;61.40;;;;;;4992430;28;20026;-78
2022/03/25 07:25:09;;;;;;;34.05;17.20;;;6.00;61.20;;;;;;4968862;28;20045;-78
2022/03/25 07:27:35;;;;;;;28.58;16.30;;;6.10;61.10;;;;;;4997326;28;20037;-78
2022/03/25 07:30:01;;;;;;;27.92;15.57;;;6.20;61.00;;;;;;4988220;28;20054;-78
2022/03/25 07:32:26;;;;;;;25.35;14.07;;;6.30;61.00;;;;;;4986310;28;20044;-78
2022/03/25 07:34:52;;;;;;;30.75;16.10;;;6.50;61.00;;;;;;4995452;28;20839;-78
2022/03/25 07:37:17;;;;;;;29.73;16.48;;;6.60;60.90;;;;;;4999335;28;20126;-78
2022/03/25 07:39:44;;;;;;;29.85;16.70;;;6.70;60.70;;;;;;4983397;28;20064;-78
2022/03/25 07:42:09;;;;;;;28.95;14.40;;;6.90;60.70;;;;;;4976037;28;20029;-78
2022/03/25 07:44:36;;;;;;;29.95;16.67;;;7.00;60.50;;;;;;4993932;28;20660;-78
2022/03/25 07:47:01;;;;;;;31.75;16.63;;;7.10;60.40;;;;;;4995328;28;20034;-79
2022/03/25 07:49:27;;;;;;;28.08;14.40;;;7.20;60.20;;;;;;4991240;28;20045;-79
2022/03/25 07:51:53;;;;;;;30.02;15.35;;;7.40;60.20;;;;;;5004475;28;20050;-78
2022/03/25 07:54:18;;;;;;;32.17;16.27;;;7.50;60.20;;;;;;4995132;28;20030;-78
2022/03/25 07:56:44;;;;;;;26.23;16.17;;;7.70;60.20;;;;;;4987612;28;20053;-79
2022/03/25 07:59:11;;;;;;;28.05;15.77;;;7.90;60.00;;;;;;4988671;28;20030;-79
2022/03/25 08:01:36;;;;;;;38.05;17.00;;;8.00;59.80;;;;;;4988573;28;20037;-79
2022/03/25 08:04:02;;;;;;;25.85;15.68;;;8.10;59.60;;;;;;4986652;28;20035;-79
2022/03/25 08:06:27;;;;;;;34.92;15.80;;;8.30;59.40;;;;;;4992929;28;20049;-78
2022/03/25 08:08:53;;;;;;;34.03;15.75;;;8.50;59.40;;;;;;4975541;28;20041;-79
2022/03/25 08:11:20;;;;;;;32.15;15.00;;;8.70;59.20;;;;;;4982463;28;20416;-79
2022/03/25 08:13:47;;;;;;;24.83;14.88;;;8.80;59.20;;;;;;4955666;28;20057;-78
2022/03/25 08:16:14;;;;;;;25.98;14.52;;;9.10;59.10;;;;;;4963882;28;20700;-78
2022/03/25 08:18:40;;;;;;;29.40;14.95;;;9.30;59.60;;;;;;4977861;28;20050;-78
2022/03/25 08:21:06;;;;;;;31.85;16.75;;;9.50;58.80;;;;;;4981198;28;20101;-78
2022/03/25 08:29:00;;;;;;;28.40;15.82;;;10.20;58.20;;;;;;4980551;28;20422;-79
2022/03/25 08:31:26;;;;;;;26.13;16.02;;;10.40;57.90;;;;;;4976241;28;20042;-79
2022/03/25 08:33:51;;;;;;;33.08;17.00;;;10.60;57.70;;;;;;4970917;28;20042;-78
2022/03/25 08:36:17;;;;;;;28.02;17.17;;;10.80;57.40;;;;;;4948307;28;20031;-78
2022/03/25 08:38:43;;;;;;;28.67;16.55;;;11.10;57.20;;;;;;4956602;28;20513;-79
2022/03/25 08:41:09;;;;;;;33.38;16.83;;;11.30;56.90;;;;;;4962422;28;20050;-79
2022/03/25 08:43:34;;;;;;;30.23;16.92;;;11.60;56.70;;;;;;4985860;28;20037;-79
2022/03/25 08:46:00;;;;;;;32.35;17.23;;;11.80;56.40;;;;;;4987199;28;20421;-79
2022/03/25 08:48:25;;;;;;;32.13;17.30;;;12.00;56.10;;;;;;4972638;28;20039;-79
2022/03/25 08:50:51;;;;;;;29.33;16.15;;;12.30;55.90;;;;;;4966992;28;20484;-79
2022/03/25 08:53:17;;;;;;;30.20;16.60;;;12.50;55.50;;;;;;4984594;28;20152;-79
2022/03/25 08:55:42;;;;;;;33.00;18.45;;;12.70;55.20;;;;;;4983155;28;20038;-79
2022/03/25 08:58:08;;;;;;;35.20;18.92;;;13.00;54.80;;;;;;4971349;28;20068;-79
2022/03/25 09:00:33;;;;;;;31.10;18.85;;;13.20;54.30;;;;;;4950530;28;20053;-79
2022/03/25 09:02:59;;;;;;;40.80;22.30;;;13.40;54.00;;;;;;4973674;28;20038;-79
2022/03/25 09:05:24;;;;;;;35.45;20.42;;;13.60;53.60;;;;;;4961849;28;20053;-79
2022/03/25 09:07:50;;;;;;;36.90;19.67;;;13.80;53.20;;;;;;4984896;28;20416;-79
2022/03/25 09:10:16;;;;;;;46.88;21.30;;;14.00;52.90;;;;;;4977120;28;20038;-79
2022/03/25 09:12:42;;;;;;;37.63;21.50;;;14.20;53.10;;;;;;4976049;28;20129;-80
2022/03/25 09:15:09;;;;;;;36.80;20.38;;;14.40;52.00;;;;;;4960582;28;20553;-79
2022/03/25 09:17:35;;;;;;;43.47;21.33;;;14.60;51.70;;;;;;4979496;28;21229;-81
2022/03/25 09:20:03;;;;;;;36.67;20.58;;;14.80;51.50;;;;;;4980486;28;20053;-81
2022/03/25 09:22:30;;;;;;;35.10;20.38;;;15.00;51.10;;;;;;4975774;28;20046;-80
2022/03/25 09:24:55;;;;;;;36.47;19.65;;;15.30;50.80;;;;;;4948936;28;20086;-81
2022/03/25 09:27:21;;;;;;;34.88;20.00;;;15.50;50.50;;;;;;4981050;28;20077;-81
2022/03/25 09:29:47;;;;;;;39.58;22.85;;;15.80;50.00;;;;;;4985275;28;20425;-81
2022/03/25 09:32:12;;;;;;;40.67;21.05;;;16.00;49.50;;;;;;4984296;28;20029;-81
2022/03/25 09:37:22;;;;;;;39.65;21.98;;;16.40;48.50;;;;;;4980864;28;20088;-81
2022/03/25 09:39:48;;;;;;;35.40;20.40;;;16.60;48.30;;;;;;4962907;28;20038;-81
2022/03/25 09:42:14;;;;;;;31.75;20.67;;;16.80;47.90;;;;;;4981790;28;20043;-81
2022/03/25 09:44:41;;;;;;;31.63;20.35;;;17.10;47.70;;;;;;4985149;28;20038;-81
2022/03/25 09:47:10;;;;;;;38.08;22.42;;;17.40;48.10;;;;;;4982442;28;20027;-82
2022/03/25 09:49:37;;;;;;;32.85;20.25;;;17.60;46.90;;;;;;4974928;28;20794;-82
2022/03/25 09:52:04;;;;;;;37.95;20.70;;;17.80;46.40;;;;;;4970918;28;20184;-82
2022/03/25 09:54:30;;;;;;;34.30;21.05;;;18.10;46.10;;;;;;4973302;28;20033;-80
2022/03/25 09:56:55;;;;;;;33.40;18.85;;;18.30;45.60;;;;;;4987859;28;20050;-80
2022/03/25 09:59:21;;;;;;;44.15;22.63;;;18.50;45.30;;;;;;4972318;28;20042;-82
2022/03/25 10:01:46;;;;;;;39.92;22.08;;;18.80;45.10;;;;;;4984153;28;20034;-81
2022/03/25 10:04:34;;;;;;;38.50;23.50;;;19.00;44.60;;;;;;4985227;28;20069;-81
2022/03/25 10:06:59;;;;;;;34.05;20.42;;;19.10;43.30;;;;;;4977445;28;20035;-80
2022/03/25 10:09:25;;;;;;;39.47;23.38;;;19.30;43.80;;;;;;4957215;28;20125;-81
2022/03/25 10:11:51;;;;;;;39.00;23.38;;;19.50;43.50;;;;;;4990978;28;20419;-81
2022/03/25 10:14:28;;;;;;;37.78;22.17;;;19.70;43.00;;;;;;4993192;28;20070;-80
2022/03/25 10:16:54;;;;;;;37.05;21.30;;;19.80;42.30;;;;;;4961508;28;20968;-81
2022/03/25 10:19:21;;;;;;;38.50;22.85;;;19.90;42.30;;;;;;4984137;28;20034;-81
2022/03/25 10:22:00;;;;;;;35.53;22.95;;;20.20;42.10;;;;;;4987580;28;20031;-81
2022/03/25 10:24:53;;;;;;;32.88;20.50;;;20.30;41.30;;;;;;4966005;28;20072;-81
2022/03/25 10:27:23;;;;;;;39.08;23.05;;;20.50;41.10;;;;;;4975190;28;20109;-81
2022/03/25 10:29:50;;;;;;;33.10;20.55;;;20.80;41.30;;;;;;4965661;28;20046;-81
2022/03/25 10:32:19;;;;;;;33.22;20.45;;;20.90;40.90;;;;;;4979874;28;20056;-82
2022/03/25 10:34:45;;;;;;;34.88;22.23;;;21.10;40.60;;;;;;4970054;28;20057;-81
2022/03/25 10:37:12;;;;;;;33.95;22.58;;;21.30;40.30;;;;;;4986034;28;20505;-81
2022/03/25 10:39:38;;;;;;;36.67;24.10;;;21.50;39.90;;;;;;4977658;28;20041;-82
2022/03/25 10:42:05;;;;;;;40.88;23.50;;;21.80;39.40;;;;;;4969891;28;20031;-82
2022/03/25 10:44:37;;;;;;;37.08;23.13;;;21.90;38.80;;;;;;4984561;28;20512;-82
2022/03/25 10:47:15;;;;;;;32.92;22.02;;;22.10;38.30;;;;;;4959657;28;20058;-82
2022/03/25 10:49:44;;;;;;;36.67;22.52;;;22.20;37.40;;;;;;4985791;28;20767;-82
2022/03/25 10:52:31;;;;;;;38.83;22.77;;;22.30;37.70;;;;;;4985847;28;20034;-81
2022/03/25 10:55:23;;;;;;;37.35;22.65;;;22.50;36.70;;;;;;4968916;28;20039;-82
2022/03/25 10:57:50;;;;;;;32.85;21.83;;;22.70;36.30;;;;;;4965237;28;20046;-82
2022/03/25 11:00:16;;;;;;;32.95;22.05;;;22.80;36.70;;;;;;4951738;28;20433;-82
2022/03/25 11:02:42;;;;;;;34.38;22.40;;;22.90;36.50;;;;;;4982709;28;20593;-82
2022/03/25 11:05:09;;;;;;;33.55;21.73;;;23.10;36.20;;;;;;4958878;28;20042;-82
2022/03/25 11:07:40;;;;;;;30.52;20.88;;;23.30;36.00;;;;;;4970369;28;20046;-82
2022/03/25 11:10:05;;;;;;;37.55;22.40;;;23.40;35.70;;;;;;4980359;28;20478;-82
2022/03/25 11:12:31;;;;;;;35.38;22.75;;;23.60;35.50;;;;;;4970106;28;20109;-82
2022/03/25 11:14:59;;;;;;;31.45;21.17;;;23.80;35.10;;;;;;4981094;28;20034;-82
2022/03/25 11:17:31;;;;;;;30.77;20.98;;;23.90;34.80;;;;;;4970551;28;20030;-82
2022/03/25 11:19:59;;;;;;;36.08;23.55;;;24.10;34.50;;;;;;4980424;28;20050;-82
2022/03/25 11:22:24;;;;;;;36.92;23.00;;;24.10;34.20;;;;;;4998650;28;20187;-82
2022/03/25 11:24:52;;;;;;;35.20;23.13;;;24.30;34.00;;;;;;4996068;28;20582;-82
2022/03/25 11:27:30;;;;;;;32.40;22.08;;;24.30;33.70;;;;;;4984436;28;20036;-82
2022/03/25 11:29:57;;;;;;;32.17;21.27;;;24.40;33.00;;;;;;4994380;28;20133;-82
2022/03/25 11:32:23;;;;;;;34.90;22.73;;;24.50;33.20;;;;;;4989761;28;20145;-83
2022/03/25 11:34:55;;;;;;;33.05;22.20;;;24.60;33.10;;;;;;4999903;28;20041;-83
2022/03/25 11:37:28;;;;;;;34.25;22.92;;;24.70;32.50;;;;;;5005741;28;20614;-82
2022/03/25 11:40:12;;;;;;;36.72;24.58;;;24.90;32.30;;;;;;4989835;28;20044;-83
2022/03/25 11:42:39;;;;;;;34.97;22.80;;;25.00;31.10;;;;;;5002909;28;20042;-82
2022/03/25 11:45:31;;;;;;;33.70;22.63;;;25.10;32.10;;;;;;5007982;28;20029;-82
2022/03/25 11:48:02;;;;;;;34.08;22.38;;;25.20;31.10;;;;;;4988355;28;20563;-83
2022/03/25 11:50:28;;;;;;;36.50;24.08;;;25.40;31.80;;;;;;5009878;28;20073;-82
2022/03/25 11:52:54;;;;;;;37.47;22.23;;;25.50;31.60;;;;;;4990285;28;20116;-82
2022/03/25 11:55:19;;;;;;;30.92;20.60;;;25.60;31.50;;;;;;4988100;28;20208;-82
2022/03/25 11:57:46;;;;;;;36.42;23.92;;;25.70;31.30;;;;;;4979695;28;20577;-82
2022/03/25 12:00:24;;;;;;;37.47;24.00;;;25.80;31.10;;;;;;4993815;28;20025;-83
2022/03/25 12:02:59;;;;;;;27.98;20.67;;;25.90;30.10;;;;;;4995111;28;20112;-82
2022/03/25 12:05:25;;;;;;;39.67;25.48;;;25.90;30.40;;;;;;4986757;28;20037;-82
2022/03/25 12:08:21;;;;;;;32.72;23.10;;;26.10;30.70;;;;;;5015432;28;20057;-83
2022/03/25 12:10:47;;;;;;;30.58;20.60;;;26.20;29.60;;;;;;4978225;28;20623;-82
2022/03/25 12:13:13;;;;;;;22.25;17.58;;;26.20;30.10;;;;;;4987731;28;20033;-82
2022/03/25 12:15:39;;;;;;;32.20;19.58;;;26.20;29.90;;;;;;4983918;28;20017;-82
2022/03/25 12:18:44;;;;;;;28.35;21.05;;;26.20;29.80;;;;;;4995773;28;20101;-81
2022/03/25 12:21:30;;;;;;;29.90;20.48;;;26.30;28.70;;;;;;4983605;28;20044;-81
2022/03/25 12:23:56;;;;;;;31.55;20.90;;;26.30;28.80;;;;;;4972605;28;20052;-81
2022/03/25 12:26:40;;;;;;;31.50;19.65;;;26.40;29.30;;;;;;4972362;28;20624;-81
2022/03/25 12:29:06;;;;;;;28.17;20.27;;;26.40;28.50;;;;;;4999614;28;20039;-81
2022/03/25 12:31:32;;;;;;;27.83;19.27;;;26.30;28.90;;;;;;4964537;28;20042;-82
2022/03/25 12:34:00;;;;;;;31.35;20.92;;;26.30;28.70;;;;;;4991734;28;20039;-81
2022/03/25 12:36:27;;;;;;;25.15;18.20;;;26.30;28.60;;;;;;4987697;28;20121;-81
2022/03/25 12:38:56;;;;;;;30.08;20.38;;;26.30;28.40;;;;;;4978705;28;20042;-81
2022/03/25 12:41:28;;;;;;;25.70;17.38;;;26.50;28.50;;;;;;4958538;28;20480;-81